createdAt,value
2022-11-17T00:01:08.732Z,4.88
2022-11-17T00:03:39.812Z,4.84
2022-11-17T00:06:10.114Z,4.78
2022-11-17T00:08:40.970Z,4.95
2022-11-17T00:11:14.106Z,4.97
2022-11-17T00:13:57.256Z,4.86
2022-11-17T00:16:27.792Z,5.06
2022-11-17T00:19:11.026Z,4.96
2022-11-17T00:21:41.297Z,4.82
2022-11-17T00:24:11.999Z,4.80
2022-11-17T00:27:01.629Z,4.89
2022-11-17T00:29:32.870Z,4.71
2022-11-17T00:32:15.643Z,4.75
2022-11-17T00:34:46.334Z,4.82
2022-11-17T00:37:18.475Z,4.81
2022-11-17T00:39:49.195Z,4.83
2022-11-17T00:42:22.083Z,4.71
2022-11-17T00:44:52.828Z,4.82
2022-11-17T00:47:22.828Z,4.84
2022-11-17T00:49:53.152Z,4.75
2022-11-17T00:52:23.194Z,4.68
2022-11-17T00:54:53.540Z,4.61
2022-11-17T00:57:26.168Z,4.51
2022-11-17T00:59:56.530Z,4.60
2022-11-17T01:02:26.571Z,4.62
2022-11-17T01:04:56.959Z,4.56
2022-11-17T01:07:27.111Z,4.46
2022-11-17T01:09:57.534Z,4.51
2022-11-17T01:12:30.140Z,4.56
2022-11-17T01:15:00.512Z,4.61
2022-11-17T01:17:30.598Z,4.47
2022-11-17T01:20:00.956Z,4.50
2022-11-17T01:22:30.994Z,4.35
2022-11-17T01:25:01.368Z,4.49
2022-11-17T01:27:33.936Z,4.46
2022-11-17T01:30:04.289Z,4.51
2022-11-17T01:32:34.325Z,4.59
2022-11-17T01:35:04.686Z,4.52
2022-11-17T01:37:34.659Z,4.57
2022-11-17T01:40:05.103Z,4.52
2022-11-17T01:42:37.828Z,4.54
2022-11-17T01:45:22.288Z,4.36
2022-11-17T01:47:55.196Z,4.45
2022-11-17T01:50:32.736Z,4.44
2022-11-17T01:53:07.337Z,4.41
2022-11-17T01:55:41.203Z,4.47
2022-11-17T01:58:17.325Z,4.45
2022-11-17T02:00:47.858Z,4.44
2022-11-17T02:03:18.050Z,4.44
2022-11-17T02:05:54.665Z,4.41
2022-11-17T02:08:29.042Z,4.38
2022-11-17T02:11:00.285Z,4.26
2022-11-17T02:13:33.326Z,4.34
2022-11-17T02:16:03.857Z,4.34
2022-11-17T02:18:33.982Z,4.38
2022-11-17T02:21:25.544Z,4.42
2022-11-17T02:24:25.951Z,4.36
2022-11-17T02:27:28.063Z,4.44
2022-11-17T02:30:05.347Z,4.30
2022-11-17T02:32:48.693Z,4.29
2022-11-17T02:35:26.376Z,4.30
2022-11-17T02:38:08.815Z,4.34
2022-11-17T02:40:46.453Z,4.32
2022-11-17T02:43:33.637Z,4.27
2022-11-17T02:46:10.505Z,4.23
2022-11-17T02:48:44.515Z,4.21
2022-11-17T02:51:23.345Z,4.20
2022-11-17T02:53:56.046Z,4.09
2022-11-17T02:56:26.338Z,4.18
2022-11-17T02:59:00.864Z,4.11
2022-11-17T03:01:59.703Z,4.21
2022-11-17T03:04:34.361Z,4.26
2022-11-17T03:07:18.886Z,4.12
2022-11-17T03:09:59.114Z,4.19
2022-11-17T03:12:38.328Z,4.18
2022-11-17T03:15:17.466Z,4.17
2022-11-17T03:17:59.232Z,4.15
2022-11-17T03:20:36.095Z,4.17
2022-11-17T03:23:11.785Z,4.14
2022-11-17T03:25:48.359Z,4.08
2022-11-17T03:28:20.408Z,4.08
2022-11-17T03:30:53.079Z,4.03
2022-11-17T03:33:27.581Z,3.96
2022-11-17T03:36:03.826Z,4.09
2022-11-17T03:38:41.245Z,4.02
2022-11-17T03:41:15.166Z,4.08
2022-11-17T03:43:49.631Z,4.12
2022-11-17T03:46:24.846Z,4.10
2022-11-17T03:49:05.374Z,4.06
2022-11-17T03:51:36.011Z,4.05
2022-11-17T03:54:06.755Z,4.12
2022-11-17T03:56:43.161Z,4.03
2022-11-17T03:59:18.516Z,4.13
2022-11-17T04:01:49.200Z,4.02
2022-11-17T04:04:23.891Z,4.07
2022-11-17T04:06:55.141Z,4.09
2022-11-17T04:09:25.464Z,4.16
2022-11-17T04:12:08.439Z,4.17
2022-11-17T04:14:51.097Z,4.16
2022-11-17T04:17:21.817Z,4.18
2022-11-17T04:19:54.728Z,4.16
2022-11-17T04:22:25.342Z,4.08
2022-11-17T04:24:55.566Z,4.09
2022-11-17T04:27:38.586Z,4.16
2022-11-17T04:30:09.774Z,4.06
2022-11-17T04:32:40.354Z,4.02
2022-11-17T04:35:13.365Z,4.09
2022-11-17T04:37:43.953Z,4.01
2022-11-17T04:40:14.614Z,4.03
2022-11-17T04:42:42.606Z,4.07
2022-11-17T04:45:13.166Z,4.12
2022-11-17T04:47:43.707Z,4.03
2022-11-17T04:50:16.681Z,4.02
2022-11-17T04:52:47.206Z,3.98
2022-11-17T04:55:17.514Z,4.02
2022-11-17T04:57:48.070Z,3.95
2022-11-17T05:00:20.020Z,4.00
2022-11-17T05:02:50.290Z,4.01
2022-11-17T05:05:22.849Z,4.02
2022-11-17T05:07:53.138Z,3.92
2022-11-17T05:10:43.410Z,4.00
2022-11-17T05:13:25.039Z,4.02
2022-11-17T05:16:08.301Z,4.05
2022-11-17T05:18:38.547Z,4.00
2022-11-17T05:21:13.199Z,4.00
2022-11-17T05:23:55.741Z,3.98
2022-11-17T05:26:28.322Z,3.99
2022-11-17T05:29:00.284Z,4.01
2022-11-17T05:31:31.742Z,3.97
2022-11-17T05:34:03.029Z,3.93
2022-11-17T05:36:35.893Z,3.89
2022-11-17T05:39:06.786Z,3.86
2022-11-17T05:41:37.599Z,3.92
2022-11-17T05:44:08.208Z,3.88
2022-11-17T05:46:38.169Z,3.93
2022-11-17T05:49:08.540Z,3.95
2022-11-17T05:51:41.356Z,4.02
2022-11-17T05:54:11.829Z,3.96
2022-11-17T05:56:45.123Z,3.99
2022-11-17T05:59:27.747Z,3.91
2022-11-17T06:02:03.578Z,3.95
2022-11-17T06:04:34.371Z,3.95
2022-11-17T06:07:07.373Z,4.03
2022-11-17T06:09:39.590Z,4.02
2022-11-17T06:12:12.016Z,4.02
2022-11-17T06:14:42.116Z,4.01
2022-11-17T06:17:22.151Z,4.05
2022-11-17T06:19:56.328Z,4.10
2022-11-17T06:22:30.367Z,4.09
2022-11-17T06:25:01.614Z,4.01
2022-11-17T06:27:34.838Z,4.08
2022-11-17T06:30:06.660Z,4.06
2022-11-17T06:32:40.245Z,4.03
2022-11-17T06:35:13.015Z,3.97
2022-11-17T06:37:46.143Z,4.06
2022-11-17T06:40:18.719Z,4.10
2022-11-17T06:43:02.894Z,4.18
2022-11-17T06:45:35.821Z,4.02
2022-11-17T06:48:06.727Z,4.02
2022-11-17T06:50:37.699Z,4.06
2022-11-17T06:53:12.934Z,4.10
2022-11-17T06:55:42.930Z,4.14
2022-11-17T06:58:14.303Z,4.08
2022-11-17T07:00:44.825Z,4.05
2022-11-17T07:03:15.417Z,4.02
2022-11-17T07:05:48.387Z,4.03
2022-11-17T07:08:22.665Z,4.01
2022-11-17T07:10:54.799Z,4.04
2022-11-17T07:13:26.666Z,4.07
2022-11-17T07:15:56.988Z,4.14
2022-11-17T07:18:27.548Z,4.18
2022-11-17T07:20:57.496Z,4.20
2022-11-17T07:23:30.406Z,4.10
2022-11-17T07:26:00.581Z,4.10
2022-11-17T07:28:32.171Z,4.08
2022-11-17T07:31:05.394Z,4.04
2022-11-17T07:33:36.395Z,4.06
2022-11-17T07:36:07.648Z,4.09
2022-11-17T07:38:41.687Z,4.09
2022-11-17T07:41:15.036Z,4.18
2022-11-17T07:43:45.404Z,4.18
2022-11-17T07:46:17.384Z,4.20
2022-11-17T07:48:47.925Z,4.06
2022-11-17T07:51:17.958Z,4.07
2022-11-17T07:53:50.844Z,4.10
2022-11-17T07:56:20.807Z,4.02
2022-11-17T07:58:51.223Z,4.00
2022-11-17T08:01:21.410Z,4.03
2022-11-17T08:03:51.792Z,3.98
2022-11-17T08:06:22.752Z,4.04
2022-11-17T08:08:55.618Z,4.03
2022-11-17T08:11:25.829Z,4.07
2022-11-17T08:13:57.095Z,4.02
2022-11-17T08:16:30.650Z,4.07
2022-11-17T08:19:01.021Z,4.06
2022-11-17T08:21:31.013Z,4.07
2022-11-17T08:24:04.179Z,4.02
2022-11-17T08:26:34.204Z,4.08
2022-11-17T08:29:04.569Z,4.11
2022-11-17T08:31:34.556Z,4.15
2022-11-17T08:34:04.813Z,4.16
2022-11-17T08:36:34.760Z,4.11
2022-11-17T08:39:07.821Z,4.10
2022-11-17T08:41:37.829Z,4.12
2022-11-17T08:44:08.579Z,4.11
2022-11-17T08:46:38.522Z,4.17
2022-11-17T08:49:08.798Z,4.11
2022-11-17T08:51:38.957Z,4.18
2022-11-17T08:54:14.258Z,4.19
2022-11-17T08:56:46.108Z,4.18
2022-11-17T08:59:16.810Z,4.23
2022-11-17T09:01:46.892Z,4.20
2022-11-17T09:04:18.007Z,4.14
2022-11-17T09:06:48.432Z,4.18
2022-11-17T09:09:22.015Z,4.19
2022-11-17T09:11:52.401Z,4.12
2022-11-17T09:14:22.710Z,4.13
2022-11-17T09:16:54.268Z,4.11
2022-11-17T09:19:24.709Z,4.15
2022-11-17T09:21:54.723Z,4.12
2022-11-17T09:24:27.994Z,4.10
2022-11-17T09:26:58.625Z,4.16
2022-11-17T09:29:28.936Z,4.12
2022-11-17T09:31:59.321Z,4.14
2022-11-17T09:34:29.645Z,4.13
2022-11-17T09:36:59.648Z,4.14
2022-11-17T09:39:32.506Z,4.15
2022-11-17T09:42:02.614Z,4.20
2022-11-17T09:44:40.296Z,4.21
2022-11-17T09:47:30.121Z,4.20
2022-11-17T09:50:17.183Z,4.24
2022-11-17T09:53:07.949Z,4.21
2022-11-17T09:55:43.044Z,4.30
2022-11-17T09:58:20.655Z,4.51
2022-11-17T10:00:53.040Z,4.30
2022-11-17T10:03:25.385Z,4.23
2022-11-17T10:05:56.777Z,4.23
2022-11-17T10:08:32.399Z,4.19
2022-11-17T10:11:25.662Z,4.21
2022-11-17T10:13:55.791Z,4.18
2022-11-17T10:16:32.437Z,4.22
2022-11-17T10:19:05.323Z,4.26
2022-11-17T10:21:35.624Z,4.24
2022-11-17T10:24:05.873Z,4.25
2022-11-17T10:26:48.254Z,4.27
2022-11-17T10:29:25.179Z,4.30
2022-11-17T10:31:55.476Z,4.31
2022-11-17T10:34:41.132Z,4.25
2022-11-17T10:37:28.152Z,4.22
2022-11-17T10:40:17.340Z,4.29
2022-11-17T10:43:02.674Z,4.29
2022-11-17T10:45:32.975Z,4.26
2022-11-17T10:48:21.615Z,4.29
2022-11-17T10:50:56.828Z,4.29
2022-11-17T10:53:34.974Z,4.28
2022-11-17T10:56:15.919Z,4.30
2022-11-17T10:59:04.964Z,4.26
2022-11-17T11:01:37.754Z,4.28
2022-11-17T11:04:10.525Z,4.29
2022-11-17T11:06:40.588Z,4.24
2022-11-17T11:09:19.111Z,4.29
2022-11-17T11:11:52.550Z,4.29
2022-11-17T11:14:51.409Z,4.33
2022-11-17T11:17:22.667Z,4.25
2022-11-17T11:19:55.274Z,4.22
2022-11-17T11:22:34.480Z,4.24
2022-11-17T11:25:17.446Z,4.30
2022-11-17T11:27:58.971Z,4.46
2022-11-17T11:30:40.950Z,4.56
2022-11-17T11:33:25.886Z,4.46
2022-11-17T11:36:07.635Z,4.53
2022-11-17T11:38:55.575Z,4.50
2022-11-17T11:41:41.989Z,4.46
2022-11-17T11:44:27.783Z,4.46
2022-11-17T11:47:08.969Z,4.38
2022-11-17T11:49:45.108Z,4.47
2022-11-17T11:52:21.951Z,4.52
2022-11-17T11:54:57.181Z,4.46
2022-11-17T11:57:32.190Z,4.41
2022-11-17T12:00:05.258Z,4.44
2022-11-17T12:02:46.687Z,4.37
2022-11-17T12:05:27.319Z,4.45
2022-11-17T12:08:10.384Z,4.44
2022-11-17T12:10:48.150Z,4.63
2022-11-17T12:13:21.027Z,4.53
2022-11-17T12:15:52.454Z,4.45
2022-11-17T12:18:34.903Z,4.43
2022-11-17T12:21:08.153Z,4.39
2022-11-17T12:24:18.694Z,4.40
2022-11-17T12:26:49.117Z,4.44
2022-11-17T12:29:33.290Z,4.38
2022-11-17T12:32:05.205Z,4.47
2022-11-17T12:34:39.545Z,4.56
2022-11-17T12:37:31.059Z,4.57
2022-11-17T12:40:10.538Z,4.62
2022-11-17T12:43:18.857Z,4.77
2022-11-17T12:46:15.467Z,4.74
2022-11-17T12:48:55.763Z,4.74
2022-11-17T12:51:35.325Z,4.79
2022-11-17T12:54:22.335Z,4.88
2022-11-17T12:57:00.867Z,4.76
2022-11-17T13:00:07.762Z,4.62
2022-11-17T13:03:02.998Z,4.59
2022-11-17T13:05:33.859Z,4.52
2022-11-17T13:08:30.648Z,4.47
2022-11-17T13:11:07.994Z,4.47
2022-11-17T13:13:42.571Z,4.46
2022-11-17T13:16:22.097Z,4.48
2022-11-17T13:18:53.169Z,4.49
2022-11-17T13:21:32.389Z,4.53
2022-11-17T13:24:05.075Z,4.52
2022-11-17T13:26:38.267Z,4.46
2022-11-17T13:29:10.378Z,4.47
2022-11-17T13:31:41.055Z,4.40
2022-11-17T13:34:21.273Z,4.38
2022-11-17T13:37:00.065Z,4.39
2022-11-17T13:39:32.935Z,4.43
2022-11-17T13:42:04.956Z,4.51
2022-11-17T13:44:35.923Z,4.52
2022-11-17T13:47:21.274Z,4.45
2022-11-17T13:49:51.427Z,4.42
2022-11-17T13:52:40.717Z,4.43
2022-11-17T13:55:22.568Z,4.42
2022-11-17T13:57:58.112Z,4.43
2022-11-17T14:00:28.339Z,4.50
2022-11-17T14:02:59.826Z,4.43
2022-11-17T14:05:31.346Z,4.39
2022-11-17T14:08:14.899Z,4.40
2022-11-17T14:10:48.284Z,4.38
2022-11-17T14:17:24.765Z,4.78
2022-11-17T14:19:55.106Z,4.74
2022-11-17T14:22:31.760Z,4.63
2022-11-17T14:25:02.588Z,4.60
2022-11-17T14:27:49.172Z,4.60
2022-11-17T14:30:22.580Z,4.61
2022-11-17T14:32:53.083Z,4.60
2022-11-17T14:35:23.447Z,4.56
2022-11-17T14:37:53.662Z,4.59
2022-11-17T14:40:24.536Z,4.52
2022-11-17T14:42:57.326Z,4.63
2022-11-17T14:45:27.624Z,4.58
2022-11-17T14:47:57.699Z,4.55
2022-11-17T14:50:28.362Z,4.47
2022-11-17T14:52:58.484Z,4.57
2022-11-17T14:55:30.272Z,4.42
2022-11-17T14:58:02.846Z,4.42
2022-11-17T15:00:33.182Z,4.45
2022-11-17T15:03:03.169Z,4.41
2022-11-17T15:05:33.621Z,4.44
2022-11-17T15:08:03.828Z,4.40
2022-11-17T15:10:34.243Z,4.39
2022-11-17T15:13:06.965Z,4.40
2022-11-17T15:15:39.274Z,4.41
2022-11-17T15:18:09.366Z,4.39
2022-11-17T15:20:39.821Z,4.41
2022-11-17T15:23:10.259Z,4.47
2022-11-17T15:25:41.123Z,4.41
2022-11-17T15:28:18.904Z,4.41
2022-11-17T15:30:52.329Z,4.30
2022-11-17T15:33:22.378Z,4.35
2022-11-17T15:36:03.170Z,4.22
2022-11-17T15:38:34.161Z,4.23
2022-11-17T15:41:04.799Z,4.21
2022-11-17T15:43:40.543Z,4.22
2022-11-17T15:46:12.513Z,4.21
2022-11-17T15:48:44.742Z,4.17
2022-11-17T15:51:17.093Z,4.18
2022-11-17T15:53:48.387Z,4.19
2022-11-17T15:56:20.579Z,4.14
2022-11-17T15:58:58.195Z,4.06
2022-11-17T16:01:30.046Z,4.00
2022-11-17T16:04:01.461Z,4.10
2022-11-17T16:06:32.749Z,4.09
2022-11-17T16:09:03.031Z,4.11
2022-11-17T16:11:33.507Z,4.09
2022-11-17T16:14:07.334Z,4.09
2022-11-17T16:16:40.262Z,4.11
2022-11-17T16:19:10.577Z,4.10
2022-11-17T16:21:40.863Z,3.93
2022-11-17T16:24:13.837Z,4.03
2022-11-17T16:26:44.814Z,3.97
2022-11-17T16:29:18.054Z,3.98
2022-11-17T16:31:48.522Z,4.01
2022-11-17T16:34:19.223Z,3.99
2022-11-17T16:36:49.491Z,3.99
2022-11-17T16:39:20.281Z,3.90
2022-11-17T16:41:52.654Z,3.92
2022-11-17T16:44:25.272Z,3.97
2022-11-17T16:46:58.533Z,3.90
2022-11-17T16:49:30.976Z,3.97
2022-11-17T16:52:01.264Z,3.88
2022-11-17T16:54:31.586Z,3.89
2022-11-17T16:57:01.912Z,3.90
2022-11-17T16:59:34.489Z,3.88
2022-11-17T17:02:04.890Z,3.91
2022-11-17T17:04:35.291Z,3.91
2022-11-17T17:07:05.640Z,3.93
2022-11-17T17:09:37.442Z,3.83
2022-11-17T17:12:08.888Z,3.91
2022-11-17T17:14:41.481Z,3.87
2022-11-17T17:17:11.768Z,3.81
2022-11-17T17:19:41.716Z,3.80
2022-11-17T17:22:11.953Z,3.80
2022-11-17T17:24:41.892Z,3.86
2022-11-17T17:27:12.378Z,3.85
2022-11-17T17:29:45.037Z,3.77
2022-11-17T17:32:15.562Z,3.76
2022-11-17T17:34:45.526Z,3.76
2022-11-17T17:37:15.842Z,3.78
2022-11-17T17:39:45.818Z,3.77
2022-11-17T17:42:16.272Z,3.67
2022-11-17T17:44:48.848Z,3.59
2022-11-17T17:47:19.254Z,3.67
2022-11-17T17:49:49.224Z,3.66
2022-11-17T17:52:19.833Z,3.60
2022-11-17T17:54:50.088Z,3.69
2022-11-17T17:57:20.687Z,3.66
2022-11-17T17:59:53.574Z,3.65
2022-11-17T18:02:24.166Z,3.64
2022-11-17T18:04:54.351Z,3.71
2022-11-17T18:07:24.747Z,3.60
2022-11-17T18:09:54.917Z,3.63
2022-11-17T18:12:25.399Z,3.61
2022-11-17T18:14:58.008Z,3.59
2022-11-17T18:17:28.302Z,3.57
2022-11-17T18:19:58.424Z,3.56
2022-11-17T18:22:28.882Z,3.57
2022-11-17T18:24:58.864Z,3.49
2022-11-17T18:27:29.238Z,3.54
2022-11-17T18:30:01.795Z,3.55
2022-11-17T18:32:32.153Z,3.50
2022-11-17T18:35:02.188Z,3.51
2022-11-17T18:37:33.015Z,3.55
2022-11-17T18:40:03.921Z,3.54
2022-11-17T18:42:35.163Z,3.51
2022-11-17T18:45:16.154Z,3.53
2022-11-17T18:47:49.007Z,3.44
2022-11-17T18:50:19.306Z,3.52
2022-11-17T18:52:49.886Z,3.44
2022-11-17T18:55:19.933Z,3.41
2022-11-17T18:57:50.241Z,3.45
2022-11-17T19:00:26.545Z,3.42
2022-11-17T19:02:57.109Z,3.44
2022-11-17T19:05:27.046Z,3.31
2022-11-17T19:07:57.352Z,3.25
2022-11-17T19:10:27.316Z,3.32
2022-11-17T19:12:57.658Z,3.27
2022-11-17T19:15:30.434Z,3.27
2022-11-17T19:18:00.936Z,3.34
2022-11-17T19:20:31.067Z,3.38
2022-11-17T19:23:01.622Z,3.30
2022-11-17T19:25:32.059Z,3.27
2022-11-17T19:28:02.822Z,3.30
2022-11-17T19:30:35.520Z,3.30
2022-11-17T19:33:06.817Z,3.29
2022-11-17T19:35:44.003Z,3.35
2022-11-17T19:38:14.787Z,3.37
2022-11-17T19:40:45.052Z,3.34
2022-11-17T19:43:17.956Z,3.14
2022-11-17T19:45:50.699Z,3.28
2022-11-17T19:48:21.181Z,3.23
2022-11-17T19:50:55.647Z,3.21
2022-11-17T19:53:49.481Z,3.41
2022-11-17T19:56:24.500Z,3.37
2022-11-17T19:58:55.947Z,3.33
2022-11-17T20:01:30.487Z,3.37
2022-11-17T20:04:03.228Z,3.20
2022-11-17T20:06:37.902Z,3.27
2022-11-17T20:09:10.926Z,3.26
2022-11-17T20:11:42.196Z,3.32
2022-11-17T20:14:14.525Z,3.22
2022-11-17T20:16:49.711Z,3.16
2022-11-17T20:19:20.368Z,3.16
2022-11-17T20:21:50.742Z,3.11
2022-11-17T20:24:21.579Z,2.92
2022-11-17T20:26:51.876Z,3.03
2022-11-17T20:29:24.433Z,3.08
2022-11-17T20:31:57.506Z,3.02
2022-11-17T20:34:28.407Z,3.01
2022-11-17T20:37:01.603Z,3.06
2022-11-17T20:39:32.191Z,2.97
2022-11-17T20:42:02.418Z,3.02
2022-11-17T20:44:32.918Z,2.86
2022-11-17T20:47:05.479Z,2.72
2022-11-17T20:49:36.699Z,2.91
2022-11-17T20:52:12.089Z,2.95
2022-11-17T20:54:45.361Z,2.90
2022-11-17T20:57:15.787Z,2.90
2022-11-17T20:59:46.595Z,2.91
2022-11-17T21:02:19.240Z,2.81
2022-11-17T21:04:49.671Z,2.92
2022-11-17T21:07:19.747Z,2.92
2022-11-17T21:09:50.128Z,2.91
2022-11-17T21:12:20.515Z,2.79
2022-11-17T21:14:51.030Z,2.90
2022-11-17T21:17:36.236Z,2.82
2022-11-17T21:20:07.591Z,2.85
2022-11-17T21:22:37.768Z,2.84
2022-11-17T21:25:09.570Z,2.85
2022-11-17T21:27:39.876Z,2.78
2022-11-17T21:30:12.326Z,2.76
2022-11-17T21:32:45.439Z,2.81
2022-11-17T21:35:15.935Z,2.70
2022-11-17T21:37:46.019Z,2.75
2022-11-17T21:40:16.980Z,2.76
2022-11-17T21:42:47.294Z,2.76
2022-11-17T21:45:18.094Z,2.78
2022-11-17T21:47:55.202Z,2.83
2022-11-17T21:50:28.728Z,2.76
2022-11-17T21:52:58.967Z,2.73
2022-11-17T21:55:30.030Z,2.74
2022-11-17T21:58:00.088Z,2.73
2022-11-17T22:00:30.976Z,2.74
2022-11-17T22:03:03.772Z,2.81
2022-11-17T22:05:34.713Z,2.85
2022-11-17T22:08:04.920Z,2.77
2022-11-17T22:10:35.346Z,2.69
2022-11-17T22:13:08.256Z,2.78
2022-11-17T22:15:38.847Z,2.80
2022-11-17T22:18:11.679Z,2.75
2022-11-17T22:20:42.721Z,2.78
2022-11-17T22:23:13.330Z,2.82
2022-11-17T22:25:45.771Z,2.77
2022-11-17T22:28:16.720Z,2.78
2022-11-17T22:30:47.336Z,2.71
2022-11-17T22:33:20.214Z,2.66
2022-11-17T22:35:50.872Z,2.81
2022-11-17T22:38:21.415Z,2.78
2022-11-17T22:40:51.954Z,2.63
2022-11-17T22:43:21.919Z,2.64
2022-11-17T22:45:52.353Z,2.75
2022-11-17T22:48:25.372Z,2.57
2022-11-17T22:50:55.860Z,2.61
2022-11-17T22:53:26.102Z,2.59
2022-11-17T22:55:57.253Z,2.61
2022-11-17T22:58:27.150Z,2.61
2022-11-17T23:00:57.469Z,2.57
2022-11-17T23:03:30.099Z,2.59
2022-11-17T23:06:03.877Z,2.58
2022-11-17T23:08:34.620Z,2.54
2022-11-17T23:13:56.156Z,2.54
2022-11-17T23:16:26.826Z,2.60
2022-11-17T23:19:00.646Z,2.59
2022-11-17T23:21:31.218Z,2.59
2022-11-17T23:24:01.346Z,2.53
2022-11-17T23:26:31.763Z,2.41
2022-11-17T23:29:01.796Z,2.37
2022-11-17T23:31:32.144Z,2.39
2022-11-17T23:34:04.820Z,2.41
2022-11-17T23:36:35.263Z,2.44
2022-11-17T23:39:05.383Z,2.42
2022-11-17T23:41:35.762Z,2.43
2022-11-17T23:44:06.419Z,2.31
2022-11-17T23:46:36.841Z,2.35
2022-11-17T23:49:09.627Z,2.39
2022-11-17T23:51:40.068Z,2.36
2022-11-17T23:54:10.319Z,2.42
2022-11-17T23:56:40.691Z,2.36
2022-11-17T23:59:10.874Z,2.27
